createdAt,value
2018-04-28T00:00:31.555Z,3.10
2018-04-28T00:03:04.899Z,3.50
2018-04-28T00:05:37.383Z,3.33
2018-04-28T00:08:09.918Z,2.87
2018-04-28T00:10:42.507Z,3.17
2018-04-28T00:13:15.012Z,2.83
2018-04-28T00:15:47.507Z,3.33
2018-04-28T00:18:23.846Z,3.07
2018-04-28T00:20:56.433Z,3.67
2018-04-28T00:23:29.019Z,3.47
2018-04-28T00:26:04.247Z,3.70
2018-04-28T00:28:53.443Z,3.30
2018-04-28T00:31:28.892Z,3.37
2018-04-28T00:34:01.784Z,4.13
2018-04-28T00:36:44.912Z,3.60
2018-04-28T00:39:17.454Z,4.10
2018-04-28T00:41:49.943Z,3.60
2018-04-28T00:44:22.463Z,3.93
2018-04-28T00:46:59.483Z,3.00
2018-04-28T00:49:32.794Z,3.40
2018-04-28T00:52:05.290Z,3.97
2018-04-28T00:54:38.710Z,3.87
2018-04-28T01:00:57.459Z,3.73
2018-04-28T01:03:35.787Z,3.67
2018-04-28T01:06:08.316Z,4.57
2018-04-28T01:08:40.800Z,3.80
2018-04-28T01:14:12.855Z,3.93
2018-04-28T01:16:49.952Z,4.00
2018-04-28T01:19:27.991Z,3.30
2018-04-28T01:22:04.036Z,3.23
2018-04-28T01:24:40.295Z,3.10
2018-04-28T01:27:15.450Z,3.07
2018-04-28T01:30:06.586Z,3.23
2018-04-28T01:35:58.987Z,3.50
2018-04-28T01:38:32.851Z,4.07
2018-04-28T01:41:17.219Z,4.03
2018-04-28T01:43:54.315Z,3.43
2018-04-28T01:46:27.615Z,3.87
2018-04-28T01:49:10.607Z,4.03
2018-04-28T01:51:45.455Z,3.53
2018-04-28T01:57:42.289Z,4.23
2018-04-28T02:00:14.800Z,3.90
2018-04-28T02:02:50.152Z,4.43
2018-04-28T02:08:20.719Z,3.77
2018-04-28T02:10:57.843Z,4.40
2018-04-28T02:13:36.103Z,4.43
2018-04-28T02:16:24.097Z,4.47
2018-04-28T02:19:08.522Z,3.73
2018-04-28T02:25:12.679Z,3.80
2018-04-28T02:31:06.944Z,4.20
2018-04-28T02:33:40.306Z,3.80
2018-04-28T02:36:18.438Z,4.00
2018-04-28T02:38:54.474Z,3.90
2018-04-28T02:41:35.664Z,3.93
2018-04-28T02:47:11.681Z,3.97
2018-04-28T02:49:45.593Z,4.33
2018-04-28T02:52:29.880Z,4.27
2018-04-28T02:55:05.823Z,4.00
2018-04-28T03:00:48.577Z,4.53
2018-04-28T03:03:28.842Z,4.43
2018-04-28T03:06:03.565Z,4.10
2018-04-28T03:08:37.636Z,3.77
2018-04-28T03:11:20.147Z,4.20
2018-04-28T03:13:52.705Z,4.27
2018-04-28T03:16:31.138Z,3.80
2018-04-28T03:19:04.779Z,3.80
2018-04-28T03:21:38.769Z,5.13
2018-04-28T03:27:31.920Z,4.73
2018-04-28T03:30:06.290Z,4.30
2018-04-28T03:32:42.356Z,4.10
2018-04-28T03:35:24.571Z,4.70
2018-04-28T03:38:08.713Z,5.00
2018-04-28T03:40:56.860Z,4.77
2018-04-28T03:43:30.163Z,4.30
2018-04-28T03:46:17.462Z,4.40
2018-04-28T03:48:59.929Z,4.20
2018-04-28T03:51:35.220Z,5.20
2018-04-28T03:57:30.120Z,4.63
2018-04-28T04:00:14.402Z,4.50
2018-04-28T04:02:58.594Z,4.93
2018-04-28T04:05:33.994Z,4.40
2018-04-28T04:08:19.827Z,4.87
2018-04-28T04:10:56.168Z,4.60
2018-04-28T04:13:40.657Z,4.70
2018-04-28T04:19:45.739Z,4.63
2018-04-28T04:22:35.907Z,5.00
2018-04-28T04:25:10.239Z,4.90
2018-04-28T04:30:49.345Z,4.57
2018-04-28T04:36:57.362Z,4.77
2018-04-28T04:39:35.689Z,5.00
2018-04-28T04:48:50.730Z,5.17
2018-04-28T04:51:29.248Z,6.00
2018-04-28T05:00:48.969Z,5.20
2018-04-28T05:03:29.334Z,4.83
2018-04-28T05:06:08.679Z,4.87
2018-04-28T05:11:48.469Z,3.93
2018-04-28T05:14:23.952Z,4.27
2018-04-28T05:17:04.118Z,3.73
2018-04-28T05:19:45.193Z,3.73
2018-04-28T05:25:46.650Z,4.47
2018-04-28T05:28:45.018Z,3.90
2018-04-28T05:31:28.391Z,4.40
2018-04-28T05:37:33.517Z,4.05
2018-04-28T05:43:15.323Z,4.07
2018-04-28T05:45:59.687Z,4.15
2018-04-28T05:48:35.827Z,4.28
2018-04-28T05:51:15.129Z,3.58
2018-04-28T05:57:12.183Z,3.90
2018-04-28T05:59:50.510Z,3.60
2018-04-28T06:02:31.639Z,4.22
2018-04-28T06:08:26.367Z,3.95
2018-04-28T06:11:21.722Z,3.78
2018-04-28T06:17:25.126Z,4.40
2018-04-28T06:20:08.404Z,4.10
2018-04-28T06:22:40.949Z,4.20
2018-04-28T06:25:13.443Z,4.10
2018-04-28T06:27:46.007Z,3.87
2018-04-28T06:30:18.511Z,3.58
2018-04-28T06:32:51.071Z,4.05
2018-04-28T06:35:23.565Z,3.28
2018-04-28T06:37:56.084Z,3.78
2018-04-28T06:40:28.635Z,3.72
2018-04-28T06:43:01.211Z,4.05
2018-04-28T06:45:33.919Z,3.45
2018-04-28T06:48:06.426Z,3.37
2018-04-28T06:50:38.914Z,3.40
2018-04-28T06:53:11.465Z,3.20
2018-04-28T06:55:43.955Z,3.17
2018-04-28T06:58:16.472Z,3.28
2018-04-28T07:00:49.004Z,3.35
2018-04-28T07:03:21.522Z,3.20
2018-04-28T07:05:54.013Z,3.10
2018-04-28T07:08:26.528Z,3.33
2018-04-28T07:10:59.030Z,3.10
2018-04-28T07:13:31.704Z,3.20
2018-04-28T07:16:04.199Z,2.97
2018-04-28T07:18:36.802Z,3.40
2018-04-28T07:21:09.382Z,3.40
2018-04-28T07:23:41.891Z,3.37
2018-04-28T07:26:14.379Z,3.33
2018-04-28T07:28:46.895Z,3.60
2018-04-28T07:31:19.432Z,3.35
2018-04-28T07:33:51.945Z,4.03
2018-04-28T07:36:24.445Z,3.80
2018-04-28T07:38:56.967Z,3.50
2018-04-28T07:41:29.571Z,3.60
2018-04-28T07:44:03.094Z,3.97
2018-04-28T07:46:35.583Z,4.07
2018-04-28T07:49:08.151Z,3.20
2018-04-28T07:51:40.734Z,3.80
2018-04-28T07:54:13.295Z,3.58
2018-04-28T07:56:45.803Z,3.92
2018-04-28T07:59:18.326Z,3.58
2018-04-28T08:01:50.881Z,4.18
2018-04-28T08:04:34.107Z,3.30
2018-04-28T08:07:06.687Z,3.37
2018-04-28T08:09:39.165Z,3.87
2018-04-28T08:12:11.663Z,3.00
2018-04-28T08:14:44.259Z,3.28
2018-04-28T08:17:16.852Z,3.33
2018-04-28T08:19:49.377Z,3.70
2018-04-28T08:22:21.863Z,3.53
2018-04-28T08:24:54.375Z,3.72
2018-04-28T08:27:27.132Z,3.60
2018-04-28T08:29:59.916Z,3.30
2018-04-28T08:32:32.768Z,3.30
2018-04-28T08:35:05.282Z,3.83
2018-04-28T08:37:37.772Z,3.25
2018-04-28T08:40:10.332Z,3.10
2018-04-28T08:42:42.829Z,3.30
2018-04-28T08:45:15.365Z,3.78
2018-04-28T08:47:47.917Z,3.75
2018-04-28T08:50:20.481Z,3.05
2018-04-28T08:52:52.975Z,3.42
2018-04-28T08:55:25.553Z,3.12
2018-04-28T08:57:58.121Z,3.40
2018-04-28T09:00:30.716Z,3.22
2018-04-28T09:03:04.028Z,3.65
2018-04-28T09:05:36.570Z,3.08
2018-04-28T09:08:09.191Z,3.55
2018-04-28T09:10:43.352Z,3.37
2018-04-28T09:13:15.907Z,3.47
2018-04-28T09:15:48.495Z,3.40
2018-04-28T09:18:21.067Z,3.35
2018-04-28T09:20:53.780Z,2.97
2018-04-28T09:23:26.298Z,3.30
2018-04-28T09:25:59.128Z,3.05
2018-04-28T09:28:31.646Z,3.45
2018-04-28T09:31:04.200Z,2.87
2018-04-28T09:33:36.690Z,2.90
2018-04-28T09:36:09.197Z,3.15
2018-04-28T09:38:41.690Z,3.00
2018-04-28T09:41:14.203Z,3.12
2018-04-28T09:43:46.730Z,2.95
2018-04-28T09:46:19.258Z,3.03
2018-04-28T09:48:51.765Z,3.45
2018-04-28T09:51:24.391Z,3.25
2018-04-28T09:53:56.980Z,3.70
2018-04-28T09:56:29.490Z,3.42
2018-04-28T09:59:02.727Z,3.35
2018-04-28T10:01:40.761Z,3.55
2018-04-28T10:04:18.910Z,3.12
2018-04-28T10:06:51.483Z,2.72
2018-04-28T10:09:23.985Z,3.17
2018-04-28T10:11:56.503Z,3.65
2018-04-28T10:14:29.004Z,3.42
2018-04-28T10:17:01.627Z,3.20
2018-04-28T10:19:34.130Z,3.25
2018-04-28T10:22:06.658Z,2.75
2018-04-28T10:24:39.151Z,3.53
2018-04-28T10:27:11.669Z,3.55
2018-04-28T10:29:44.254Z,3.12
2018-04-28T10:32:16.779Z,2.97
2018-04-28T10:34:49.262Z,3.60
2018-04-28T10:37:21.780Z,4.40
2018-04-28T10:39:54.275Z,3.78
2018-04-28T10:42:26.791Z,3.08
2018-04-28T10:44:59.347Z,3.58
2018-04-28T10:47:32.513Z,2.70
2018-04-28T10:50:04.974Z,3.40
2018-04-28T10:52:37.507Z,3.12
2018-04-28T10:55:10.003Z,3.22
2018-04-28T10:57:42.516Z,3.42
2018-04-28T11:00:15.005Z,3.58
2018-04-28T11:02:47.527Z,3.40
2018-04-28T11:05:20.021Z,3.00
2018-04-28T11:07:52.536Z,3.00
2018-04-28T11:10:25.032Z,3.05
2018-04-28T11:12:57.544Z,2.75
2018-04-28T11:15:30.047Z,3.03
2018-04-28T11:18:03.294Z,2.53
2018-04-28T11:20:36.076Z,2.53
2018-04-28T11:23:08.657Z,3.10
2018-04-28T11:25:42.281Z,3.03
2018-04-28T11:28:15.483Z,2.67
2018-04-28T11:30:48.055Z,3.22
2018-04-28T11:33:20.647Z,2.90
2018-04-28T11:35:53.192Z,3.03
2018-04-28T11:38:25.853Z,2.87
2018-04-28T11:40:58.874Z,3.00
2018-04-28T11:43:32.147Z,3.03
2018-04-28T11:46:04.917Z,2.70
2018-04-28T11:48:37.592Z,2.80
2018-04-28T11:51:10.115Z,2.85
2018-04-28T11:53:42.633Z,3.50
2018-04-28T11:56:15.131Z,3.05
2018-04-28T11:58:47.862Z,2.85
2018-04-28T12:01:20.322Z,3.00
2018-04-28T12:03:53.135Z,3.10
2018-04-28T12:06:25.701Z,2.83
2018-04-28T12:08:58.800Z,2.85
2018-04-28T12:11:32.929Z,3.10
2018-04-28T12:14:05.691Z,2.87
2018-04-28T12:16:38.276Z,2.85
2018-04-28T12:19:10.849Z,2.85
2018-04-28T12:21:43.343Z,3.50
2018-04-28T12:24:16.120Z,3.30
2018-04-28T12:26:48.766Z,3.12
2018-04-28T12:29:21.363Z,2.70
2018-04-28T12:31:53.923Z,3.10
2018-04-28T12:34:27.207Z,3.25
2018-04-28T12:36:59.871Z,3.47
2018-04-28T12:39:33.176Z,2.85
2018-04-28T12:42:05.663Z,3.20
2018-04-28T12:44:38.369Z,3.12
2018-04-28T12:47:10.901Z,3.30
2018-04-28T12:49:43.421Z,3.30
2018-04-28T12:52:15.943Z,3.47
2018-04-28T12:54:48.460Z,3.37
2018-04-28T12:57:20.955Z,3.12
2018-04-28T12:59:53.467Z,3.47
2018-04-28T13:02:26.041Z,3.58
2018-04-28T13:04:58.632Z,3.33
2018-04-28T13:07:31.832Z,2.95
2018-04-28T13:10:04.848Z,3.45
2018-04-28T13:12:37.520Z,3.53
2018-04-28T13:15:10.429Z,3.60
2018-04-28T13:17:43.217Z,3.33
2018-04-28T13:20:15.740Z,2.85
2018-04-28T13:22:48.358Z,3.03
2018-04-28T13:25:20.804Z,2.87
2018-04-28T13:27:53.319Z,3.58
2018-04-28T13:30:26.482Z,3.28
2018-04-28T13:32:59.018Z,3.15
2018-04-28T13:35:31.796Z,3.10
2018-04-28T13:38:04.351Z,3.17
2018-04-28T13:40:37.965Z,3.55
2018-04-28T13:43:10.546Z,3.58
2018-04-28T13:45:43.189Z,4.03
2018-04-28T13:48:15.765Z,3.28
2018-04-28T13:50:48.226Z,2.95
2018-04-28T13:53:20.781Z,3.65
2018-04-28T13:55:53.313Z,3.20
2018-04-28T13:58:25.903Z,2.85
2018-04-28T14:00:58.403Z,3.75
2018-04-28T14:03:30.911Z,2.92
2018-04-28T14:06:04.135Z,2.83
2018-04-28T14:08:36.657Z,3.37
2018-04-28T14:11:09.163Z,3.40
2018-04-28T14:13:41.680Z,3.65
2018-04-28T14:16:14.223Z,2.90
2018-04-28T14:18:46.742Z,2.83
2018-04-28T14:21:19.291Z,2.78
2018-04-28T14:23:51.804Z,3.05
2018-04-28T14:26:24.300Z,2.55
2018-04-28T14:28:56.843Z,2.95
2018-04-28T14:31:29.355Z,3.30
2018-04-28T14:34:02.358Z,3.03
2018-04-28T14:36:34.866Z,3.28
2018-04-28T14:39:07.389Z,2.25
2018-04-28T14:41:39.887Z,2.90
2018-04-28T14:44:12.404Z,3.00
2018-04-28T14:46:44.899Z,2.50
2018-04-28T14:49:17.444Z,2.60
2018-04-28T14:51:49.926Z,2.92
2018-04-28T14:54:22.430Z,2.75
2018-04-28T14:56:54.928Z,2.58
2018-04-28T14:59:27.455Z,2.95
2018-04-28T15:01:59.956Z,2.80
2018-04-28T15:04:32.799Z,2.72
2018-04-28T15:07:05.348Z,2.78
2018-04-28T15:09:38.016Z,2.25
2018-04-28T15:12:10.413Z,2.45
2018-04-28T15:14:42.919Z,2.45
2018-04-28T15:17:15.415Z,2.70
2018-04-28T15:19:48.812Z,2.60
2018-04-28T15:22:22.291Z,2.42
2018-04-28T15:24:54.865Z,2.53
2018-04-28T15:27:27.565Z,2.17
2018-04-28T15:30:00.064Z,2.60
2018-04-28T15:32:32.560Z,2.50
2018-04-28T15:35:05.071Z,2.30
2018-04-28T15:37:37.669Z,2.17
2018-04-28T15:40:10.178Z,2.30
2018-04-28T15:42:42.670Z,2.25
2018-04-28T15:45:15.182Z,2.12
2018-04-28T15:47:47.759Z,2.40
2018-04-28T15:50:20.270Z,2.53
2018-04-28T15:52:52.773Z,2.42
2018-04-28T15:55:25.337Z,2.40
2018-04-28T15:57:57.801Z,2.30
2018-04-28T16:00:30.374Z,2.53
2018-04-28T16:03:03.168Z,2.45
2018-04-28T16:05:35.752Z,2.70
2018-04-28T16:08:08.373Z,2.17
2018-04-28T16:10:40.892Z,2.17
2018-04-28T16:13:13.387Z,2.00
2018-04-28T16:15:45.905Z,1.92
2018-04-28T16:18:18.483Z,1.87
2018-04-28T16:20:51.066Z,1.73
2018-04-28T16:23:23.566Z,1.73
2018-04-28T16:25:56.139Z,1.75
2018-04-28T16:28:28.717Z,2.35
2018-04-28T16:31:01.223Z,2.08
2018-04-28T16:33:34.511Z,2.28
2018-04-28T16:36:07.033Z,2.28
2018-04-28T16:38:39.586Z,2.12
2018-04-28T16:41:12.104Z,2.25
2018-04-28T16:43:44.597Z,1.98
2018-04-28T16:46:17.143Z,2.87
2018-04-28T16:48:49.639Z,3.08
2018-04-28T16:51:22.158Z,2.85
2018-04-28T16:53:54.683Z,2.15
2018-04-28T16:56:27.282Z,2.53
2018-04-28T16:58:59.904Z,2.08
2018-04-28T17:01:32.790Z,2.20
2018-04-28T17:04:05.353Z,3.72
2018-04-28T17:06:37.963Z,3.03
2018-04-28T17:09:10.477Z,2.72
2018-04-28T17:11:43.007Z,2.75
2018-04-28T17:14:15.518Z,3.22
2018-04-28T17:16:48.078Z,4.15
2018-04-28T17:19:20.592Z,3.22
2018-04-28T17:21:53.096Z,3.05
2018-04-28T17:24:25.624Z,3.00
2018-04-28T17:26:58.215Z,2.53
2018-04-28T17:29:30.731Z,2.85
2018-04-28T17:32:03.279Z,2.65
2018-04-28T17:34:35.798Z,2.40
2018-04-28T17:37:08.356Z,2.12
2018-04-28T17:39:40.878Z,1.98
2018-04-28T17:42:13.367Z,2.03
2018-04-28T17:44:45.978Z,2.28
2018-04-28T17:47:18.596Z,1.90
2018-04-28T17:49:51.107Z,2.22
2018-04-28T17:52:23.605Z,2.12
2018-04-28T17:54:56.118Z,2.05
2018-04-28T17:57:28.631Z,1.92
2018-04-28T18:00:01.217Z,2.03
2018-04-28T18:02:34.249Z,1.67
2018-04-28T18:05:06.772Z,2.10
2018-04-28T18:07:39.278Z,2.08
2018-04-28T18:10:11.794Z,1.62
2018-04-28T18:12:44.292Z,2.40
2018-04-28T18:15:16.798Z,2.70
2018-04-28T18:17:49.294Z,2.70
2018-04-28T18:20:21.816Z,2.65
2018-04-28T18:22:54.320Z,2.72
2018-04-28T18:25:26.871Z,3.83
2018-04-28T18:27:59.361Z,3.72
2018-04-28T18:30:32.726Z,2.75
2018-04-28T18:33:05.240Z,2.80
2018-04-28T18:35:37.826Z,2.62
2018-04-28T18:38:10.335Z,3.53
2018-04-28T18:40:42.851Z,5.00
2018-04-28T18:43:15.394Z,6.75
2018-04-28T18:45:47.992Z,5.03
2018-04-28T18:48:20.558Z,4.20
2018-04-28T18:50:53.077Z,4.20
2018-04-28T18:53:25.616Z,4.97
2018-04-28T18:55:58.135Z,4.45
2018-04-28T18:58:30.696Z,4.22
2018-04-28T19:01:03.828Z,4.00
2018-04-28T19:03:36.387Z,3.70
2018-04-28T19:06:08.978Z,3.47
2018-04-28T19:08:41.474Z,4.43
2018-04-28T19:11:14.368Z,3.95
2018-04-28T19:13:48.819Z,3.60
2018-04-28T19:16:21.374Z,3.42
2018-04-28T19:18:53.868Z,3.00
2018-04-28T19:21:26.442Z,2.60
2018-04-28T19:23:59.016Z,2.55
2018-04-28T19:26:32.104Z,2.85
2018-04-28T19:29:04.695Z,2.53
2018-04-28T19:31:44.064Z,2.90
2018-04-28T19:34:16.563Z,3.30
2018-04-28T19:36:49.108Z,2.90
2018-04-28T19:39:21.600Z,2.50
2018-04-28T19:41:54.115Z,3.05
2018-04-28T19:44:26.637Z,2.90
2018-04-28T19:46:59.199Z,4.28
2018-04-28T19:49:31.759Z,4.87
2018-04-28T19:52:04.277Z,4.90
2018-04-28T19:54:36.770Z,3.10
2018-04-28T19:57:09.281Z,3.03
2018-04-28T19:59:41.771Z,3.83
2018-04-28T20:02:14.286Z,4.20
2018-04-28T20:04:46.853Z,4.28
2018-04-28T20:07:19.374Z,4.65
2018-04-28T20:09:51.960Z,4.45
2018-04-28T20:12:24.402Z,3.70
2018-04-28T20:14:56.911Z,3.35
2018-04-28T20:17:29.401Z,4.53
2018-04-28T20:20:02.665Z,3.70
2018-04-28T20:25:42.978Z,3.70
2018-04-28T20:28:15.563Z,3.92
2018-04-28T20:30:48.160Z,2.90
2018-04-28T20:33:20.657Z,3.50
2018-04-28T20:35:53.255Z,3.12
2018-04-28T20:38:25.708Z,3.70
2018-04-28T20:40:58.288Z,4.55
2018-04-28T20:43:30.786Z,3.33
2018-04-28T20:46:03.569Z,3.28
2018-04-28T20:48:36.162Z,3.78
2018-04-28T20:51:08.683Z,3.83
2018-04-28T20:53:41.180Z,3.20
2018-04-28T20:56:13.682Z,3.15
2018-04-28T20:58:46.175Z,3.10
2018-04-28T21:01:18.695Z,3.10
2018-04-28T21:03:51.196Z,3.45
2018-04-28T21:06:23.708Z,3.60
2018-04-28T21:08:56.203Z,4.30
2018-04-28T21:11:28.707Z,5.30
2018-04-28T21:14:01.199Z,5.68
2018-04-28T21:16:34.365Z,4.60
2018-04-28T21:19:06.855Z,5.62
2018-04-28T21:21:39.386Z,5.40
2018-04-28T21:24:11.891Z,5.85
2018-04-28T21:26:44.525Z,5.10
2018-04-28T21:29:17.111Z,4.85
2018-04-28T21:31:49.693Z,4.82
2018-04-28T21:34:22.283Z,4.25
2018-04-28T21:36:54.804Z,3.42
2018-04-28T21:39:27.300Z,3.60
2018-04-28T21:41:59.817Z,2.80
2018-04-28T21:44:33.453Z,3.05
2018-04-28T21:47:05.972Z,3.03
2018-04-28T21:49:38.516Z,3.10
2018-04-28T21:52:11.049Z,2.85
2018-04-28T21:54:43.543Z,3.10
2018-04-28T21:57:16.056Z,2.65
2018-04-28T21:59:48.542Z,2.42
2018-04-28T22:02:21.047Z,2.80
2018-04-28T22:04:53.544Z,2.80
2018-04-28T22:07:26.067Z,2.60
2018-04-28T22:09:58.584Z,2.83
2018-04-28T22:12:31.099Z,3.00
2018-04-28T22:15:04.287Z,2.80
2018-04-28T22:17:36.885Z,2.70
2018-04-28T22:20:09.386Z,2.95
2018-04-28T22:22:41.926Z,2.55
2018-04-28T22:25:14.410Z,2.85
2018-04-28T22:27:46.924Z,2.85
2018-04-28T22:30:19.419Z,3.37
2018-04-28T22:32:51.931Z,3.37
2018-04-28T22:35:24.418Z,3.35
2018-04-28T22:37:56.953Z,3.78
2018-04-28T22:40:29.455Z,3.97
2018-04-28T22:43:02.636Z,3.72
2018-04-28T22:45:35.169Z,4.03
2018-04-28T22:48:07.683Z,3.30
2018-04-28T22:50:40.181Z,3.55
2018-04-28T22:53:12.751Z,3.40
2018-04-28T22:55:45.243Z,3.30
2018-04-28T22:58:17.821Z,3.28
2018-04-28T23:00:50.309Z,3.72
2018-04-28T23:03:22.823Z,3.30
2018-04-28T23:05:55.348Z,3.80
2018-04-28T23:08:27.851Z,3.60
2018-04-28T23:11:00.363Z,3.62
2018-04-28T23:13:33.735Z,3.42
2018-04-28T23:16:06.239Z,3.78
2018-04-28T23:18:38.732Z,3.78
2018-04-28T23:21:11.311Z,3.83
2018-04-28T23:23:43.872Z,4.47
2018-04-28T23:26:16.484Z,3.95
2018-04-28T23:28:49.068Z,3.87
2018-04-28T23:31:21.591Z,4.00
2018-04-28T23:33:54.093Z,3.65
2018-04-28T23:36:26.631Z,3.85
2018-04-28T23:38:59.129Z,4.30
2018-04-28T23:41:31.724Z,4.55
2018-04-28T23:44:04.320Z,3.95
2018-04-28T23:46:37.146Z,3.42
2018-04-28T23:49:09.635Z,4.07
2018-04-28T23:51:42.246Z,5.12
2018-04-28T23:54:14.734Z,3.62
2018-04-28T23:56:47.238Z,3.70
2018-04-28T23:59:19.727Z,4.40
